Time;durP1;ratioP1;P1;durP2;ratioP2;P2;SDS_P1;SDS_P2;PMS_P1;PMS_P2;Temp;Humidity;BMP_temperature;BMP_pressure;BME280_temperature;BME280_humidity;BME280_pressure;Samples;Min_cycle;Max_cycle;Signal;HPM_P1;HPM_P2
2022/03/06 00:00:29;;;;;;;40.08;24.27;;;;;;;2.44;63.72;102112.09;5014528;28;20465;-68
2022/03/06 00:02:55;;;;;;;37.72;24.65;;;;;;;2.41;63.26;102112.38;5013105;28;20105;-66
2022/03/06 00:05:20;;;;;;;39.38;23.90;;;;;;;2.45;63.45;102113.78;5012839;28;20026;-68
2022/03/06 00:07:46;;;;;;;40.92;24.20;;;;;;;2.54;63.19;102123.63;5012970;28;20053;-67
2022/03/06 00:10:11;;;;;;;43.63;25.27;;;;;;;2.50;63.60;102124.88;5013358;28;20029;-68
2022/03/06 00:12:36;;;;;;;40.25;25.55;;;;;;;2.44;63.41;102117.44;5011764;28;20022;-67
2022/03/06 00:15:03;;;;;;;39.08;24.10;;;;;;;2.41;63.61;102117.72;5028446;28;20054;-68
2022/03/06 00:17:28;;;;;;;40.10;24.83;;;;;;;2.32;63.26;102113.19;5015012;28;20125;-67
2022/03/06 00:19:53;;;;;;;38.50;23.98;;;;;;;2.36;64.07;102120.81;5033184;28;20112;-67
2022/03/06 00:22:19;;;;;;;39.75;24.98;;;;;;;2.32;63.72;102122.06;5032613;28;20085;-68
2022/03/06 00:24:44;;;;;;;40.40;24.50;;;;;;;2.32;63.39;102121.22;5031394;28;20392;-67
2022/03/06 00:27:09;;;;;;;40.20;23.65;;;;;;;2.34;63.37;102120.09;5032564;28;20026;-67
2022/03/06 00:29:34;;;;;;;43.58;24.25;;;;;;;2.36;63.50;102119.97;5032573;28;20472;-68
2022/03/06 00:32:00;;;;;;;36.83;23.55;;;;;;;2.29;63.25;102115.19;5031788;28;20038;-68
2022/03/06 00:34:25;;;;;;;43.20;24.95;;;;;;;2.26;62.87;102117.28;5012761;28;20026;-66
2022/03/06 00:36:50;;;;;;;40.72;24.13;;;;;;;2.21;63.44;102125.69;5011609;28;20393;-68
2022/03/06 00:39:15;;;;;;;41.47;25.23;;;;;;;2.15;63.31;102120.91;5012953;28;20113;-68
2022/03/06 00:41:41;;;;;;;41.90;24.80;;;;;;;2.20;63.37;102126.66;5012708;28;20427;-68
2022/03/06 00:44:06;;;;;;;40.22;24.10;;;;;;;2.17;63.93;102132.28;5012888;28;20421;-67
2022/03/06 00:46:31;;;;;;;38.45;23.20;;;;;;;2.22;63.61;102138.09;5012546;28;20458;-68
2022/03/06 00:48:56;;;;;;;40.45;24.42;;;;;;;2.12;63.34;102145.22;5030403;28;20036;-66
2022/03/06 00:51:22;;;;;;;41.88;24.20;;;;;;;2.05;63.66;102149.41;5032488;28;20036;-67
2022/03/06 00:53:47;;;;;;;40.42;25.35;;;;;;;1.98;64.13;102153.59;5032690;28;20033;-66
2022/03/06 00:56:12;;;;;;;40.10;24.00;;;;;;;1.99;64.32;102157.97;5032432;28;20109;-68
2022/03/06 00:58:38;;;;;;;38.60;23.23;;;;;;;1.97;64.15;102149.28;5032256;28;20026;-67
2022/03/06 01:01:05;;;;;;;41.85;23.98;;;;;;;1.89;64.05;102145.44;5030082;28;20037;-66
2022/03/06 01:03:31;;;;;;;36.05;22.38;;;;;;;1.94;63.91;102159.22;5014918;28;20045;-68
2022/03/06 01:05:57;;;;;;;38.70;23.00;;;;;;;1.92;64.09;102152.34;5012380;28;20045;-67
2022/03/06 01:08:22;;;;;;;38.33;23.83;;;;;;;1.88;63.58;102154.44;5012200;28;20053;-68
2022/03/06 01:10:50;;;;;;;38.95;23.65;;;;;;;1.80;64.61;102150.75;5012309;28;20072;-67
2022/03/06 01:13:16;;;;;;;41.33;24.40;;;;;;;1.80;64.28;102158.75;5012512;28;20489;-67
2022/03/06 01:15:42;;;;;;;41.05;24.33;;;;;;;1.80;64.63;102156.06;5012343;28;20025;-66
2022/03/06 01:18:07;;;;;;;42.05;25.05;;;;;;;1.76;64.65;102163.53;5012631;28;20072;-68
2022/03/06 01:20:34;;;;;;;40.47;23.92;;;;;;;1.79;64.74;102168.59;5012398;28;20030;-67
2022/03/06 01:22:59;;;;;;;39.55;24.73;;;;;;;1.75;63.91;102169.81;5025701;28;20061;-67
2022/03/06 01:25:24;;;;;;;43.63;25.80;;;;;;;1.72;64.79;102165.63;5031817;28;20060;-67
2022/03/06 01:27:50;;;;;;;39.10;23.77;;;;;;;1.71;65.12;102163.94;5032098;28;20449;-68
2022/03/06 01:30:16;;;;;;;42.38;24.60;;;;;;;1.71;64.86;102158.59;5032165;28;20025;-66
2022/03/06 01:32:43;;;;;;;40.30;24.80;;;;;;;1.67;64.25;102161.66;5031900;28;20030;-67
2022/03/06 01:35:09;;;;;;;43.67;25.40;;;;;;;1.56;64.35;102163.44;5032147;28;20037;-67
2022/03/06 01:37:34;;;;;;;40.20;24.52;;;;;;;1.62;64.68;102164.72;5018150;28;20482;-67
2022/03/06 01:40:00;;;;;;;42.60;23.80;;;;;;;1.63;65.00;102170.91;5011098;28;20033;-67
2022/03/06 01:42:25;;;;;;;40.72;24.13;;;;;;;1.67;64.72;102169.66;5012358;28;20367;-67
2022/03/06 01:44:51;;;;;;;39.05;23.92;;;;;;;1.65;65.22;102168.97;5012488;28;20030;-68
2022/03/06 01:47:36;;;;;;;40.45;24.15;;;;;;;1.67;64.91;102172.34;5012183;28;20072;-67
2022/03/06 01:50:07;;;;;;;40.90;24.17;;;;;;;1.63;64.63;102176.25;5012275;28;20033;-67
2022/03/06 01:52:33;;;;;;;39.03;25.13;;;;;;;1.56;64.86;102171.44;5026249;28;20053;-67
2022/03/06 01:54:58;;;;;;;38.88;23.75;;;;;;;1.60;65.21;102180.00;5034308;28;20069;-68
2022/03/06 01:57:24;;;;;;;39.40;24.02;;;;;;;1.52;64.73;102175.34;5035236;28;20128;-66
2022/03/06 01:59:49;;;;;;;41.10;23.85;;;;;;;1.40;64.98;102179.06;5035275;28;20037;-66
2022/03/06 02:02:15;;;;;;;38.45;23.50;;;;;;;1.46;64.82;102177.72;5032903;28;20033;-67
2022/03/06 02:04:40;;;;;;;37.70;24.02;;;;;;;1.33;65.25;102176.09;5035099;28;20172;-68
2022/03/06 02:07:06;;;;;;;40.85;24.50;;;;;;;1.28;65.39;102180.13;5022044;28;20038;-68
2022/03/06 02:09:31;;;;;;;39.28;23.90;;;;;;;1.19;66.37;102168.41;5015074;28;20029;-68
2022/03/06 02:14:40;;;;;;;43.08;24.00;;;;;;;1.23;66.54;102176.03;5015043;28;20180;-66
2022/03/06 02:17:06;;;;;;;41.25;23.75;;;;;;;1.26;65.60;102174.09;5015167;28;20153;-67
2022/03/06 02:19:31;;;;;;;41.05;24.55;;;;;;;1.20;66.33;102173.63;5019092;28;20026;-67
2022/03/06 02:21:56;;;;;;;39.20;23.35;;;;;;;1.10;66.58;102178.03;5018851;28;20036;-68
2022/03/06 02:24:22;;;;;;;38.63;24.05;;;;;;;1.03;66.66;102180.38;5016552;28;20052;-70
2022/03/06 02:26:47;;;;;;;38.13;24.50;;;;;;;1.01;66.90;102186.81;5014938;28;20053;-68
2022/03/06 02:29:12;;;;;;;40.53;25.08;;;;;;;1.02;67.39;102177.84;5013699;28;20084;-67
2022/03/06 02:31:39;;;;;;;41.15;24.15;;;;;;;1.00;67.09;102179.81;5018133;28;20025;-69
2022/03/06 02:34:05;;;;;;;40.28;23.80;;;;;;;1.02;67.03;102189.34;5023502;28;20396;-68
2022/03/06 02:36:31;;;;;;;37.72;23.67;;;;;;;1.02;67.46;102193.84;5015076;28;20034;-69
2022/03/06 02:38:56;;;;;;;38.88;23.92;;;;;;;1.12;66.66;102186.78;5014999;28;20026;-68
2022/03/06 02:41:22;;;;;;;38.78;23.75;;;;;;;1.15;66.95;102189.19;5014934;28;20137;-69
2022/03/06 02:43:47;;;;;;;38.05;23.27;;;;;;;1.09;66.50;102188.84;5013444;28;20034;-69
2022/03/06 02:46:12;;;;;;;37.72;23.65;;;;;;;1.04;67.10;102197.22;5013715;28;20100;-68
2022/03/06 02:48:37;;;;;;;40.35;23.75;;;;;;;0.97;66.46;102188.91;5014353;28;20026;-66
2022/03/06 02:51:03;;;;;;;38.08;23.15;;;;;;;0.94;67.10;102191.00;5023035;28;20539;-66
2022/03/06 02:53:28;;;;;;;38.35;22.67;;;;;;;0.90;67.93;102194.88;5021631;28;20525;-66
2022/03/06 02:55:54;;;;;;;35.20;21.95;;;;;;;0.92;67.80;102192.91;5033485;28;20080;-69
2022/03/06 02:58:21;;;;;;;38.35;23.02;;;;;;;0.87;68.17;102185.31;5015993;28;20033;-68
2022/03/06 03:00:46;;;;;;;37.70;23.40;;;;;;;0.87;67.78;102194.16;5011874;28;20045;-68
2022/03/06 03:03:11;;;;;;;35.25;21.83;;;;;;;0.81;67.39;102189.34;5018247;28;20037;-69
2022/03/06 03:05:37;;;;;;;35.75;21.95;;;;;;;0.82;68.18;102190.19;5013009;28;20034;-67
2022/03/06 03:08:02;;;;;;;34.63;21.95;;;;;;;0.81;68.63;102205.31;5023552;28;20076;-69
2022/03/06 03:10:27;;;;;;;34.20;22.25;;;;;;;0.76;68.64;102196.88;5034090;28;20041;-68
2022/03/06 03:12:54;;;;;;;36.05;21.33;;;;;;;0.76;68.66;102188.88;5033224;28;20030;-67
2022/03/06 03:15:20;;;;;;;36.67;21.65;;;;;;;0.71;68.37;102196.41;5032515;28;20029;-67
2022/03/06 03:17:46;;;;;;;39.35;22.30;;;;;;;0.71;68.35;102204.41;5018084;28;20037;-67
2022/03/06 03:20:12;;;;;;;34.53;21.90;;;;;;;0.73;68.53;102202.47;5012790;28;20112;-69
2022/03/06 03:22:38;;;;;;;36.75;20.73;;;;;;;0.81;68.34;102207.16;5016627;28;20034;-69
2022/03/06 03:25:04;;;;;;;35.70;21.65;;;;;;;0.78;68.53;102202.91;5032941;28;20029;-68
2022/03/06 03:27:29;;;;;;;39.58;22.67;;;;;;;0.74;69.16;102196.16;5033381;28;20382;-68
2022/03/06 03:29:54;;;;;;;37.63;21.83;;;;;;;0.69;69.28;102191.22;5033585;28;20087;-67
2022/03/06 03:32:20;;;;;;;35.08;21.95;;;;;;;0.67;69.42;102189.66;5033391;28;20120;-67
2022/03/06 03:34:45;;;;;;;36.38;22.10;;;;;;;0.60;69.36;102193.78;5033066;28;20034;-67
2022/03/06 03:37:10;;;;;;;37.25;22.67;;;;;;;0.58;69.64;102198.41;5031682;28;20060;-66
2022/03/06 03:39:35;;;;;;;36.08;22.58;;;;;;;0.51;69.42;102201.56;5031643;28;20037;-68
2022/03/06 03:42:01;;;;;;;36.90;23.33;;;;;;;0.45;70.36;102196.72;5028187;28;20438;-67
2022/03/06 03:44:26;;;;;;;37.67;22.33;;;;;;;0.48;69.92;102193.84;5028797;28;20040;-68
2022/03/06 03:46:51;;;;;;;36.30;23.27;;;;;;;0.47;69.86;102200.13;5014415;28;20034;-68
2022/03/06 03:49:17;;;;;;;38.50;22.80;;;;;;;0.47;69.99;102199.28;5022822;28;20046;-67
2022/03/06 03:51:43;;;;;;;34.63;22.13;;;;;;;0.43;69.64;102198.66;5032676;28;20043;-67
2022/03/06 03:54:08;;;;;;;36.97;21.63;;;;;;;0.47;70.07;102199.28;5030340;28;20147;-68
2022/03/06 03:56:34;;;;;;;37.03;22.88;;;;;;;0.40;69.66;102204.25;5017566;28;20076;-67
2022/03/06 03:58:59;;;;;;;34.95;21.05;;;;;;;0.40;70.28;102208.75;5025183;28;20060;-68
2022/03/06 04:01:24;;;;;;;38.83;23.08;;;;;;;0.32;70.14;102210.19;5011457;28;20516;-67
2022/03/06 04:03:49;;;;;;;36.08;21.70;;;;;;;0.30;70.65;102213.94;5025927;28;20449;-68
2022/03/06 04:06:17;;;;;;;35.38;21.58;;;;;;;0.25;70.65;102213.47;5032713;28;20469;-68
2022/03/06 04:08:43;;;;;;;34.45;22.13;;;;;;;0.20;71.30;102213.00;5032122;28;20540;-66
2022/03/06 04:11:09;;;;;;;35.75;22.35;;;;;;;0.07;71.38;102218.47;5032718;28;20037;-67
2022/03/06 04:13:34;;;;;;;35.97;21.70;;;;;;;0.02;71.91;102221.50;5027186;28;20061;-68
2022/03/06 04:15:59;;;;;;;36.00;22.40;;;;;;;0.00;71.44;102226.09;5012629;28;20045;-68
2022/03/06 04:18:25;;;;;;;35.17;21.65;;;;;;;-0.03;71.79;102226.31;5017091;28;20041;-68
2022/03/06 04:20:50;;;;;;;36.35;22.48;;;;;;;-0.02;71.86;102230.69;5030948;28;20037;-68
2022/03/06 04:23:16;;;;;;;35.33;22.70;;;;;;;-0.03;71.56;102228.97;5021448;28;20037;-67
2022/03/06 04:25:41;;;;;;;37.97;22.05;;;;;;;-0.02;71.75;102236.00;5022355;28;20113;-68
2022/03/06 04:28:07;;;;;;;36.38;21.77;;;;;;;-0.06;72.14;102229.22;5024700;28;20034;-69
2022/03/06 04:30:33;;;;;;;34.97;22.02;;;;;;;-0.09;71.59;102240.97;5014014;28;20034;-68
2022/03/06 04:32:59;;;;;;;37.00;22.15;;;;;;;-0.11;72.11;102245.56;5014735;28;20034;-68
2022/03/06 04:35:24;;;;;;;34.13;21.33;;;;;;;-0.15;72.30;102249.44;5013190;28;20038;-67
2022/03/06 04:37:50;;;;;;;36.70;20.80;;;;;;;-0.14;72.09;102239.63;5012601;28;20038;-68
2022/03/06 04:40:15;;;;;;;33.60;21.45;;;;;;;-0.14;72.39;102243.13;5027905;28;20092;-67
2022/03/06 04:42:41;;;;;;;36.40;21.83;;;;;;;-0.08;72.02;102247.13;5022636;28;20147;-68
2022/03/06 04:45:07;;;;;;;34.10;21.63;;;;;;;-0.03;71.72;102250.25;5032273;28;20040;-66
2022/03/06 04:47:33;;;;;;;34.90;21.50;;;;;;;0.02;71.88;102253.44;5019058;28;20041;-67
2022/03/06 04:49:58;;;;;;;32.15;21.15;;;;;;;0.03;71.48;102252.47;5013413;28;20034;-67
2022/03/06 04:52:23;;;;;;;28.48;19.80;;;;;;;-0.05;71.76;102261.03;5028740;28;20040;-67
2022/03/06 04:54:49;;;;;;;31.70;21.65;;;;;;;-0.16;72.24;102249.56;5013488;28;20038;-68
2022/03/06 04:57:14;;;;;;;36.13;21.52;;;;;;;-0.24;72.15;102266.09;5023320;28;20042;-68
2022/03/06 04:59:40;;;;;;;32.70;21.45;;;;;;;-0.21;72.46;102274.72;5024399;28;20042;-68
2022/03/06 05:02:05;;;;;;;36.92;21.40;;;;;;;-0.23;72.43;102275.78;5010125;28;20030;-68
2022/03/06 05:04:31;;;;;;;32.05;20.48;;;;;;;-0.28;72.66;102278.78;5024431;28;20613;-67
2022/03/06 05:06:56;;;;;;;34.25;21.33;;;;;;;-0.27;72.55;102280.50;5023365;28;20501;-67
2022/03/06 05:09:21;;;;;;;34.17;21.60;;;;;;;-0.27;72.27;102276.97;5012703;28;20046;-68
2022/03/06 05:11:47;;;;;;;33.50;21.40;;;;;;;-0.25;72.66;102283.88;5012002;28;20118;-68
2022/03/06 05:14:12;;;;;;;33.60;21.13;;;;;;;-0.25;72.60;102278.56;5013260;28;20041;-67
2022/03/06 05:16:37;;;;;;;32.08;21.15;;;;;;;-0.21;72.21;102289.84;5012525;28;20113;-68
2022/03/06 05:19:02;;;;;;;33.75;20.88;;;;;;;-0.21;72.49;102293.31;5011943;28;20064;-67
2022/03/06 05:21:28;;;;;;;30.17;20.48;;;;;;;-0.20;71.99;102294.16;5013770;28;20030;-66
2022/03/06 05:23:53;;;;;;;30.38;19.67;;;;;;;-0.22;71.76;102294.28;5012168;28;20034;-67
2022/03/06 05:26:19;;;;;;;30.52;20.45;;;;;;;-0.21;72.10;102296.00;5012245;28;20034;-68
2022/03/06 05:28:44;;;;;;;29.08;19.95;;;;;;;-0.29;71.96;102298.38;5022310;28;20030;-68
2022/03/06 05:31:09;;;;;;;34.83;21.35;;;;;;;-0.27;72.27;102304.44;5016498;28;20069;-68
2022/03/06 05:33:35;;;;;;;30.77;20.50;;;;;;;-0.25;71.72;102304.31;5021775;28;20091;-68
2022/03/06 05:36:01;;;;;;;32.17;20.67;;;;;;;-0.24;72.09;102308.66;5032587;28;20075;-69
2022/03/06 05:38:26;;;;;;;31.55;20.85;;;;;;;-0.27;71.90;102312.44;5016244;28;20034;-66
2022/03/06 05:40:52;;;;;;;30.75;20.88;;;;;;;-0.31;71.95;102302.97;5031237;28;20034;-68
2022/03/06 05:43:17;;;;;;;29.17;20.25;;;;;;;-0.30;71.76;102310.00;5026586;28;20030;-69
2022/03/06 05:45:44;;;;;;;30.13;20.33;;;;;;;-0.36;72.81;102302.50;5015819;28;20029;-67
2022/03/06 05:48:09;;;;;;;30.65;20.45;;;;;;;-0.37;72.66;102309.59;5026557;28;20033;-67
2022/03/06 05:50:34;;;;;;;31.70;20.85;;;;;;;-0.32;72.20;102314.56;5026440;28;20106;-67
2022/03/06 05:52:59;;;;;;;32.60;20.98;;;;;;;-0.38;71.79;102315.03;5026782;28;20029;-68
2022/03/06 05:55:25;;;;;;;33.22;20.92;;;;;;;-0.40;72.48;102317.81;5019686;28;20061;-67
2022/03/06 05:57:50;;;;;;;32.88;21.45;;;;;;;-0.41;72.05;102313.50;5025840;28;20030;-68
2022/03/06 06:00:17;;;;;;;31.38;20.40;;;;;;;-0.44;72.06;102327.03;5019832;28;20052;-65
2022/03/06 06:02:43;;;;;;;30.52;19.85;;;;;;;-0.48;72.54;102316.69;5019559;28;20040;-70
2022/03/06 06:05:09;;;;;;;31.25;20.67;;;;;;;-0.45;72.75;102317.34;5034396;28;20026;-67
2022/03/06 06:07:35;;;;;;;30.58;20.50;;;;;;;-0.46;73.13;102330.75;5025236;28;20366;-67
2022/03/06 06:10:01;;;;;;;29.58;20.30;;;;;;;-0.50;72.27;102330.13;5015242;28;20044;-69
2022/03/06 06:12:27;;;;;;;28.20;20.08;;;;;;;-0.48;72.75;102335.31;5031024;28;20033;-66
2022/03/06 06:14:53;;;;;;;28.70;19.40;;;;;;;-0.48;72.38;102337.97;5034945;28;20116;-66
2022/03/06 06:17:18;;;;;;;30.75;20.67;;;;;;;-0.52;72.53;102329.41;5034598;28;20033;-70
2022/03/06 06:19:44;;;;;;;31.30;20.38;;;;;;;-0.45;72.22;102348.41;5034641;28;20033;-68
2022/03/06 06:22:11;;;;;;;30.65;20.52;;;;;;;-0.48;72.36;102341.50;5031370;28;20457;-72
2022/03/06 06:24:36;;;;;;;30.35;20.40;;;;;;;-0.56;72.79;102343.88;5034473;28;20037;-66
2022/03/06 06:27:03;;;;;;;27.80;20.20;;;;;;;-0.56;72.57;102344.75;5032274;28;20380;-68
2022/03/06 06:29:29;;;;;;;29.35;21.10;;;;;;;-0.54;72.25;102342.81;5022603;28;20131;-69
2022/03/06 06:31:54;;;;;;;30.92;20.10;;;;;;;-0.52;72.64;102355.97;5020016;28;20499;-68
2022/03/06 06:34:20;;;;;;;28.23;19.60;;;;;;;-0.50;72.27;102350.56;5033729;28;20543;-68
2022/03/06 06:36:46;;;;;;;29.83;20.30;;;;;;;-0.57;72.50;102342.19;5032568;28;20428;-68
2022/03/06 06:39:12;;;;;;;29.90;20.30;;;;;;;-0.52;72.55;102355.97;5021931;28;20038;-69
2022/03/06 06:41:47;;;;;;;29.60;20.83;;;;;;;-0.49;72.48;102362.91;5024984;28;20037;-69
2022/03/06 06:44:12;;;;;;;32.05;20.70;;;;;;;-0.49;72.59;102358.41;5033164;28;20022;-68
2022/03/06 06:46:37;;;;;;;32.20;21.38;;;;;;;-0.52;72.27;102353.31;5026251;28;20481;-69
2022/03/06 06:49:03;;;;;;;33.35;21.95;;;;;;;-0.58;73.04;102356.44;5014451;28;20026;-68
2022/03/06 06:51:29;;;;;;;36.25;23.10;;;;;;;-0.55;72.34;102366.84;5017274;28;20248;-69
2022/03/06 06:53:55;;;;;;;34.95;22.67;;;;;;;-0.52;72.92;102366.63;5023346;28;20029;-69
2022/03/06 06:56:21;;;;;;;32.63;22.52;;;;;;;-0.50;72.06;102374.47;5014295;28;20393;-70
2022/03/06 06:58:46;;;;;;;33.78;22.70;;;;;;;-0.55;72.68;102377.50;5030279;28;20042;-69
2022/03/06 07:01:11;;;;;;;33.20;23.05;;;;;;;-0.59;72.31;102379.53;5032040;28;20453;-70
2022/03/06 07:03:37;;;;;;;30.50;21.27;;;;;;;-0.56;72.89;102381.09;5034342;28;20034;-69
2022/03/06 07:06:02;;;;;;;31.92;21.25;;;;;;;-0.53;72.63;102391.50;5033957;28;20495;-70
2022/03/06 07:08:28;;;;;;;31.15;21.23;;;;;;;-0.49;72.93;102389.50;5034122;28;20051;-67
2022/03/06 07:10:53;;;;;;;31.00;21.40;;;;;;;-0.43;72.89;102402.31;5016961;28;20382;-69
2022/03/06 07:13:18;;;;;;;32.33;22.05;;;;;;;-0.43;72.68;102400.50;5014331;28;20088;-68
2022/03/06 07:15:44;;;;;;;31.65;20.30;;;;;;;-0.34;72.42;102395.47;5015472;28;20040;-69
2022/03/06 07:18:09;;;;;;;29.88;20.35;;;;;;;-0.31;72.46;102385.44;5033762;28;20392;-68
2022/03/06 07:20:34;;;;;;;33.05;21.48;;;;;;;-0.26;72.38;102388.59;5033695;28;20057;-67
2022/03/06 07:22:59;;;;;;;32.10;21.65;;;;;;;-0.16;71.68;102388.75;5014024;28;20424;-67
2022/03/06 07:25:25;;;;;;;34.22;21.58;;;;;;;-0.17;71.53;102387.06;5014249;28;20026;-69
2022/03/06 07:27:51;;;;;;;30.60;20.92;;;;;;;-0.11;72.02;102393.72;5013751;28;20034;-68
2022/03/06 07:30:16;;;;;;;29.05;20.92;;;;;;;-0.16;71.65;102387.91;5015022;28;20038;-69
2022/03/06 07:32:45;;;;;;;31.65;21.88;;;;;;;-0.10;71.71;102406.06;5014300;28;20069;-69
2022/03/06 07:35:11;;;;;;;32.35;21.23;;;;;;;-0.07;71.26;102408.50;5033081;28;20068;-68
2022/03/06 07:37:37;;;;;;;29.33;20.88;;;;;;;-0.08;71.21;102412.97;5033023;28;20061;-68
2022/03/06 07:40:03;;;;;;;29.55;20.92;;;;;;;0.02;71.68;102420.28;5020224;28;20426;-68
2022/03/06 07:42:28;;;;;;;28.83;20.92;;;;;;;0.06;71.53;102419.91;5025131;28;20037;-68
2022/03/06 07:44:53;;;;;;;30.38;20.67;;;;;;;0.06;70.87;102425.25;5032762;28;20037;-68
2022/03/06 07:47:18;;;;;;;29.20;20.25;;;;;;;0.10;70.92;102432.00;5033169;28;20041;-70
2022/03/06 07:49:44;;;;;;;31.17;21.33;;;;;;;0.08;71.53;102428.63;5033354;28;20385;-68
2022/03/06 07:52:09;;;;;;;30.20;21.38;;;;;;;0.15;71.45;102435.19;5020965;28;20046;-70
2022/03/06 07:54:34;;;;;;;30.25;20.50;;;;;;;0.07;71.62;102434.91;5013542;28;20373;-67
2022/03/06 07:57:00;;;;;;;28.70;20.55;;;;;;;0.13;71.75;102437.09;5014334;28;20092;-69
2022/03/06 07:59:25;;;;;;;29.98;21.55;;;;;;;0.10;71.71;102444.47;5013391;28;20040;-68
2022/03/06 08:01:52;;;;;;;30.30;20.88;;;;;;;0.14;71.28;102449.44;5018948;28;20037;-68
2022/03/06 08:04:17;;;;;;;33.90;21.40;;;;;;;0.20;71.88;102453.47;5020740;28;20037;-69
2022/03/06 08:06:43;;;;;;;27.75;20.77;;;;;;;0.23;71.31;102458.56;5021863;28;20048;-67
2022/03/06 08:09:08;;;;;;;26.73;21.05;;;;;;;0.21;71.19;102460.47;5032956;28;20053;-68
2022/03/06 08:11:33;;;;;;;30.08;21.60;;;;;;;0.15;71.86;102455.59;5031023;28;20041;-69
2022/03/06 08:13:58;;;;;;;28.33;20.08;;;;;;;0.25;71.64;102455.78;5032437;28;20700;-69
2022/03/06 08:16:24;;;;;;;28.60;19.95;;;;;;;0.30;72.16;102459.78;5032665;28;20025;-67
2022/03/06 08:18:49;;;;;;;27.65;20.17;;;;;;;0.35;70.95;102464.75;5031397;28;20055;-68
2022/03/06 08:21:14;;;;;;;29.35;21.05;;;;;;;0.37;71.29;102460.16;5026234;28;20033;-69
2022/03/06 08:23:39;;;;;;;26.92;20.35;;;;;;;0.39;71.10;102460.88;5030509;28;20136;-69
2022/03/06 08:26:05;;;;;;;26.30;19.88;;;;;;;0.46;71.92;102461.25;5032313;28;20029;-68
2022/03/06 08:28:30;;;;;;;28.50;20.02;;;;;;;0.46;71.20;102471.91;5032052;28;20029;-68
2022/03/06 08:30:55;;;;;;;27.80;19.73;;;;;;;0.49;71.07;102469.84;5031836;28;20025;-68
2022/03/06 08:33:20;;;;;;;26.80;19.23;;;;;;;0.52;71.75;102471.44;5018423;28;20512;-67
2022/03/06 08:35:46;;;;;;;28.73;20.27;;;;;;;0.57;71.58;102468.41;5023666;28;20040;-68
2022/03/06 08:38:11;;;;;;;28.30;19.42;;;;;;;0.64;71.60;102473.13;5027708;28;20037;-69
2022/03/06 08:40:36;;;;;;;30.05;20.45;;;;;;;0.69;71.29;102476.31;5013961;28;20042;-68
2022/03/06 08:43:02;;;;;;;28.13;19.60;;;;;;;0.82;70.97;102475.34;5030671;28;20118;-68
2022/03/06 08:45:27;;;;;;;26.05;19.52;;;;;;;0.83;70.55;102488.53;5020658;28;20041;-69
2022/03/06 08:47:53;;;;;;;27.92;19.88;;;;;;;0.91;71.04;102487.06;5012750;28;20029;-69
2022/03/06 08:50:18;;;;;;;25.35;19.52;;;;;;;0.92;70.56;102476.31;5013191;28;20080;-68
2022/03/06 08:52:43;;;;;;;27.52;18.80;;;;;;;1.01;70.74;102488.03;5030064;28;20033;-69
2022/03/06 08:55:09;;;;;;;27.63;19.38;;;;;;;1.10;69.84;102491.81;5020021;28;20386;-68
2022/03/06 08:57:35;;;;;;;27.70;19.55;;;;;;;1.16;69.88;102480.66;5013781;28;20099;-67
2022/03/06 09:00:01;;;;;;;27.65;19.95;;;;;;;1.18;70.05;102476.91;5020651;28;20033;-69
2022/03/06 09:02:26;;;;;;;28.40;19.98;;;;;;;1.24;70.79;102481.75;5015855;28;20038;-69
2022/03/06 09:04:54;;;;;;;26.52;19.60;;;;;;;1.31;70.16;102479.41;5015306;28;20393;-68
2022/03/06 09:07:20;;;;;;;24.92;17.83;;;;;;;1.47;69.05;102487.03;5020292;28;20495;-69
2022/03/06 09:09:45;;;;;;;26.85;18.40;;;;;;;1.57;69.55;102487.13;5036215;28;20034;-71
2022/03/06 09:12:10;;;;;;;25.13;18.38;;;;;;;1.61;69.12;102490.41;5022964;28;20036;-72
2022/03/06 09:14:35;;;;;;;25.60;18.52;;;;;;;1.57;68.19;102493.31;5016581;28;20032;-70
2022/03/06 09:17:01;;;;;;;29.13;19.73;;;;;;;1.65;68.92;102499.84;5027385;28;20033;-72
2022/03/06 09:19:26;;;;;;;25.50;18.75;;;;;;;1.60;68.95;102497.53;5035930;28;20083;-70
2022/03/06 09:21:53;;;;;;;23.02;17.73;;;;;;;1.70;68.13;102492.31;5029087;28;20038;-70
2022/03/06 09:24:19;;;;;;;24.35;17.70;;;;;;;1.76;68.84;102495.31;5035790;28;20034;-70
2022/03/06 09:26:44;;;;;;;25.70;18.55;;;;;;;1.82;68.33;102496.63;5032731;28;20036;-68
2022/03/06 09:29:10;;;;;;;27.35;18.50;;;;;;;1.83;67.48;102487.66;5035380;28;20056;-67
2022/03/06 09:31:35;;;;;;;24.45;18.40;;;;;;;1.87;67.12;102497.13;5029140;28;20436;-67
2022/03/06 09:34:00;;;;;;;25.33;17.45;;;;;;;1.90;67.38;102488.84;5016098;28;20040;-66
2022/03/06 09:36:25;;;;;;;27.63;18.80;;;;;;;1.97;68.11;102481.16;5015883;28;20045;-70
2022/03/06 09:38:51;;;;;;;25.70;18.90;;;;;;;2.12;68.43;102492.38;5015741;28;20038;-66
2022/03/06 09:41:21;;;;;;;24.85;18.20;;;;;;;2.18;66.68;102486.53;5029753;28;20022;-67
2022/03/06 09:43:48;;;;;;;24.92;18.65;;;;;;;2.26;67.36;102486.72;5026326;28;20452;-68
2022/03/06 09:46:13;;;;;;;25.23;18.75;;;;;;;2.33;66.35;102488.91;5035575;28;20030;-69
2022/03/06 09:48:38;;;;;;;23.30;17.13;;;;;;;2.39;65.30;102483.03;5034946;28;20366;-72
2022/03/06 09:51:05;;;;;;;25.67;17.40;;;;;;;2.44;66.25;102481.63;5031249;28;20128;-69
2022/03/06 09:53:31;;;;;;;24.88;17.70;;;;;;;2.52;66.10;102482.81;5015905;28;20034;-69
2022/03/06 09:55:57;;;;;;;23.85;18.00;;;;;;;2.57;66.36;102477.94;5016852;28;20057;-67
2022/03/06 09:58:23;;;;;;;23.08;17.45;;;;;;;2.63;65.53;102480.91;5015507;28;20065;-70
2022/03/06 10:00:48;;;;;;;23.35;17.73;;;;;;;2.68;65.71;102483.19;5012316;28;20037;-69
2022/03/06 10:03:18;;;;;;;21.08;16.65;;;;;;;2.73;65.66;102478.28;5015450;28;20026;-70
2022/03/06 10:05:44;;;;;;;24.10;16.50;;;;;;;2.74;64.88;102476.47;5033672;28;20056;-68
2022/03/06 10:08:23;;;;;;;22.58;17.38;;;;;;;2.82;65.83;102473.97;5033398;28;20065;-69
2022/03/06 10:11:07;;;;;;;21.23;16.55;;;;;;;2.86;65.20;102483.41;5033654;28;20091;-69
2022/03/06 10:13:43;;;;;;;23.77;16.48;;;;;;;2.95;64.63;102481.78;5022009;28;20025;-69
2022/03/06 10:16:14;;;;;;;21.83;16.35;;;;;;;3.01;64.97;102487.41;5019580;28;20029;-71
2022/03/06 10:18:48;;;;;;;22.23;17.17;;;;;;;3.09;64.72;102486.75;5027964;28;20545;-73
2022/03/06 10:21:17;;;;;;;22.42;16.30;;;;;;;3.11;63.92;102489.28;5033998;28;20041;-69
2022/03/06 10:23:43;;;;;;;23.77;16.98;;;;;;;3.14;64.13;102489.88;5016936;28;20030;-71
2022/03/06 10:26:15;;;;;;;24.75;16.90;;;;;;;3.10;64.64;102488.44;5023466;28;20029;-69
2022/03/06 10:28:53;;;;;;;22.45;16.73;;;;;;;3.22;64.20;102494.53;5034977;28;20232;-74
2022/03/06 10:31:20;;;;;;;21.42;16.33;;;;;;;3.27;63.73;102484.25;5032619;28;20190;-73
2022/03/06 10:33:59;;;;;;;23.25;16.85;;;;;;;3.33;63.59;102488.22;5014796;28;20072;-71
2022/03/06 10:36:41;;;;;;;23.15;15.40;;;;;;;3.35;63.72;102492.47;5014998;28;20030;-72
2022/03/06 10:39:18;;;;;;;21.98;16.83;;;;;;;3.40;64.81;102489.38;5018017;28;20052;-73
2022/03/06 10:41:50;;;;;;;20.20;15.90;;;;;;;3.47;63.07;102489.66;5014730;28;20026;-72
2022/03/06 10:44:18;;;;;;;24.55;15.07;;;;;;;3.56;63.61;102494.19;5014289;28;20056;-72
2022/03/06 10:46:58;;;;;;;23.08;15.48;;;;;;;3.69;63.33;102497.44;5018493;28;20100;-73
2022/03/06 10:49:23;;;;;;;21.05;15.20;;;;;;;3.76;62.11;102496.91;5034161;28;20029;-69
2022/03/06 10:51:52;;;;;;;19.33;14.10;;;;;;;3.81;61.24;102492.81;5034531;28;20389;-69
2022/03/06 10:54:19;;;;;;;19.88;14.15;;;;;;;3.93;62.02;102485.50;5037074;28;20038;-72
2022/03/06 10:56:49;;;;;;;19.25;14.77;;;;;;;4.06;61.91;102491.44;5034449;28;20021;-69
2022/03/06 10:59:18;;;;;;;19.88;14.38;;;;;;;4.20;62.47;102495.50;5029291;28;20026;-71
2022/03/06 11:01:50;;;;;;;20.40;14.38;;;;;;;4.25;59.90;102487.03;5014037;28;20049;-75
2022/03/06 11:04:19;;;;;;;18.92;13.93;;;;;;;4.26;60.40;102489.56;5033812;28;20025;-72
2022/03/06 11:06:46;;;;;;;17.00;13.38;;;;;;;4.26;60.50;102486.88;5030811;28;20034;-70
2022/03/06 11:09:17;;;;;;;16.55;12.93;;;;;;;4.30;59.53;102490.13;5014872;28;20363;-72
2022/03/06 11:11:45;;;;;;;17.60;12.88;;;;;;;4.41;58.79;102486.47;5014566;28;20034;-71